Time;durP1;ratioP1;P1;durP2;ratioP2;P2;SDS_P1;SDS_P2;PMS_P1;PMS_P2;Temp;Humidity;BMP_temperature;BMP_pressure;BME280_temperature;BME280_humidity;BME280_pressure;Samples;Min_cycle;Max_cycle;Signal;HPM_P1;HPM_P2
2021/12/01 00:01:07;;;;;;;10.30;5.27;;;12.30;99.90;;;;;;5038956;28;39908;-78
2021/12/01 00:03:34;;;;;;;9.03;4.20;;;12.30;99.90;;;;;;5035549;28;38089;-77
2021/12/01 00:06:02;;;;;;;10.07;4.43;;;12.30;99.90;;;;;;5033990;28;39529;-78
2021/12/01 00:08:29;;;;;;;8.27;3.87;;;12.30;99.90;;;;;;5037104;28;48837;-78
2021/12/01 00:10:55;;;;;;;8.77;3.57;;;12.30;99.90;;;;;;5035999;28;40422;-78
2021/12/01 00:13:21;;;;;;;11.53;4.03;;;12.30;99.90;;;;;;5035283;28;39068;-78
2021/12/01 00:15:49;;;;;;;12.10;3.50;;;12.30;99.90;;;;;;5033541;28;39776;-79
2021/12/01 00:18:15;;;;;;;7.83;2.83;;;12.30;99.90;;;;;;5037696;28;37091;-78
2021/12/01 00:20:41;;;;;;;6.53;2.77;;;12.30;99.90;;;;;;5034207;28;42893;-79
2021/12/01 00:23:08;;;;;;;4.73;2.30;;;12.30;99.90;;;;;;5041016;28;41699;-78
2021/12/01 00:25:39;;;;;;;6.73;2.70;;;12.40;99.90;;;;;;5024327;28;39454;-78
2021/12/01 00:28:07;;;;;;;8.73;2.87;;;12.40;99.90;;;;;;5015906;28;36114;-78
2021/12/01 00:30:33;;;;;;;5.27;3.87;;;12.40;99.90;;;;;;5008496;28;39937;-79
2021/12/01 00:33:00;;;;;;;8.83;4.20;;;12.30;99.90;;;;;;5012185;28;38467;-78
2021/12/01 00:35:27;;;;;;;8.27;4.40;;;12.30;99.90;;;;;;5008087;28;39670;-79
2021/12/01 00:37:53;;;;;;;10.27;4.40;;;12.30;99.90;;;;;;5010293;28;37310;-78
2021/12/01 00:40:20;;;;;;;10.00;5.43;;;12.30;99.90;;;;;;5010280;28;39375;-78
2021/12/01 00:42:46;;;;;;;9.23;4.77;;;12.30;99.90;;;;;;5010795;28;38122;-80
2021/12/01 00:45:18;;;;;;;8.83;4.50;;;12.20;99.90;;;;;;5014559;28;38140;-79
2021/12/01 00:47:52;;;;;;;4.77;4.00;;;12.20;99.90;;;;;;5018592;28;37613;-79
2021/12/01 00:50:29;;;;;;;4.67;3.30;;;12.20;99.90;;;;;;5010305;28;38854;-78
2021/12/01 00:52:59;;;;;;;7.93;4.17;;;12.20;99.90;;;;;;5012073;28;40660;-79
2021/12/01 00:55:26;;;;;;;5.87;3.90;;;12.20;99.90;;;;;;5009711;28;37039;-77
2021/12/01 00:57:53;;;;;;;7.97;3.83;;;12.20;99.90;;;;;;5009979;28;38861;-79
2021/12/01 01:00:24;;;;;;;6.73;3.80;;;12.20;99.90;;;;;;5011634;28;38919;-78
2021/12/01 01:02:50;;;;;;;7.30;3.83;;;12.20;99.90;;;;;;5008853;28;37471;-78
2021/12/01 01:05:18;;;;;;;8.10;3.33;;;12.20;99.90;;;;;;5006127;28;37336;-78
2021/12/01 01:07:44;;;;;;;7.03;3.67;;;12.20;99.90;;;;;;5010159;28;39327;-79
2021/12/01 01:11:08;;;;;;;11.57;3.87;;;12.20;99.90;;;;;;5010249;28;39412;-78
2021/12/01 01:18:40;;;;;;;7.17;3.70;;;12.20;99.90;;;;;;5018918;28;47891;-79
2021/12/01 01:21:06;;;;;;;5.10;3.37;;;12.20;99.90;;;;;;5004727;28;39501;-78
2021/12/01 01:23:34;;;;;;;7.27;3.00;;;12.10;99.90;;;;;;5011063;28;37852;-79
2021/12/01 01:26:01;;;;;;;5.77;2.47;;;12.10;99.90;;;;;;5024275;28;37905;-78
2021/12/01 01:28:27;;;;;;;4.90;2.70;;;12.10;99.90;;;;;;5033093;28;47829;-78
2021/12/01 01:30:54;;;;;;;8.30;4.37;;;12.10;99.90;;;;;;5033493;28;38263;-78
2021/12/01 01:33:21;;;;;;;8.27;4.40;;;12.10;99.90;;;;;;5035176;28;39202;-79
2021/12/01 01:35:48;;;;;;;8.53;5.07;;;12.00;99.90;;;;;;5034274;28;39293;-79
2021/12/01 01:38:15;;;;;;;4.87;3.40;;;12.00;99.90;;;;;;5034938;28;39086;-79
2021/12/01 01:40:41;;;;;;;5.00;2.67;;;12.00;99.90;;;;;;5036989;28;38079;-80
2021/12/01 01:43:08;;;;;;;10.27;2.77;;;11.90;99.90;;;;;;5031853;28;38036;-79
2021/12/01 01:45:34;;;;;;;4.20;2.00;;;11.90;99.90;;;;;;5027485;28;38792;-78
2021/12/01 01:48:03;;;;;;;5.70;2.10;;;11.90;99.90;;;;;;5030689;28;36891;-79
2021/12/01 01:50:36;;;;;;;4.17;2.37;;;11.90;99.90;;;;;;5032232;28;48670;-79
2021/12/01 01:53:09;;;;;;;5.35;2.80;;;11.90;99.90;;;;;;5026430;28;38125;-78
2021/12/01 01:55:38;;;;;;;4.90;2.83;;;11.90;99.90;;;;;;5026287;28;36904;-77
2021/12/01 01:58:04;;;;;;;6.27;3.07;;;11.80;99.90;;;;;;5027040;28;37107;-79
2021/12/01 02:00:34;;;;;;;4.83;3.13;;;11.80;99.90;;;;;;5030081;28;38954;-78
2021/12/01 02:03:00;;;;;;;5.90;2.93;;;11.80;99.90;;;;;;5030392;28;37983;-79
2021/12/01 02:05:27;;;;;;;4.83;2.70;;;11.70;99.90;;;;;;5026858;28;39694;-78
2021/12/01 02:07:54;;;;;;;5.17;2.77;;;11.80;99.90;;;;;;5029417;28;37356;-78
2021/12/01 02:10:20;;;;;;;4.60;3.00;;;11.70;99.90;;;;;;5027299;28;38667;-79
2021/12/01 02:12:46;;;;;;;4.23;3.20;;;11.70;99.90;;;;;;5021161;28;37238;-78
2021/12/01 02:15:14;;;;;;;4.30;2.93;;;11.70;99.90;;;;;;5027289;28;38841;-79
2021/12/01 02:17:40;;;;;;;3.83;3.50;;;11.70;99.90;;;;;;5028122;28;37129;-79
2021/12/01 02:20:24;;;;;;;3.73;3.40;;;11.70;99.90;;;;;;5027031;28;40396;-79
2021/12/01 02:22:50;;;;;;;5.90;3.33;;;11.70;99.90;;;;;;5034449;28;39982;-78
2021/12/01 02:25:16;;;;;;;7.43;5.13;;;11.70;99.90;;;;;;5031894;28;38084;-79
2021/12/01 02:27:42;;;;;;;6.80;4.77;;;11.60;99.90;;;;;;5035456;28;36050;-80
2021/12/01 02:30:09;;;;;;;6.60;4.67;;;11.60;99.90;;;;;;5026843;28;38162;-79
2021/12/01 02:32:35;;;;;;;4.00;3.53;;;11.60;99.90;;;;;;5030235;28;39060;-79
2021/12/01 02:35:01;;;;;;;3.23;2.53;;;11.60;99.90;;;;;;5036516;28;36798;-77
2021/12/01 02:37:27;;;;;;;5.10;2.60;;;11.60;99.90;;;;;;5035649;28;46533;-79
2021/12/01 02:39:53;;;;;;;2.87;2.33;;;11.60;99.90;;;;;;5032984;28;39197;-77
2021/12/01 02:42:20;;;;;;;2.40;2.20;;;11.60;99.90;;;;;;5036875;28;37609;-77
2021/12/01 02:44:47;;;;;;;3.67;2.67;;;11.60;99.90;;;;;;5042073;28;36836;-76
2021/12/01 02:47:14;;;;;;;4.10;2.70;;;11.50;99.90;;;;;;5036939;28;38172;-80
2021/12/01 02:49:40;;;;;;;3.97;3.13;;;11.50;99.90;;;;;;5041668;28;36811;-76
2021/12/01 02:52:06;;;;;;;4.70;2.77;;;11.50;99.90;;;;;;5043705;28;37784;-77
2021/12/01 02:54:33;;;;;;;3.00;2.43;;;11.50;99.90;;;;;;5034262;28;37586;-77
2021/12/01 02:57:00;;;;;;;3.00;2.30;;;11.50;99.90;;;;;;5033324;28;37600;-77
2021/12/01 02:59:27;;;;;;;3.50;2.50;;;11.50;99.90;;;;;;5038333;28;39164;-76
2021/12/01 03:01:55;;;;;;;5.40;2.87;;;11.50;99.90;;;;;;5026663;28;39635;-76
2021/12/01 03:04:22;;;;;;;3.33;2.33;;;11.50;99.90;;;;;;5045791;28;38264;-77
2021/12/01 03:06:49;;;;;;;6.60;2.60;;;11.40;99.90;;;;;;5027284;28;37029;-77
2021/12/01 03:09:16;;;;;;;2.63;2.43;;;11.40;99.90;;;;;;5029935;28;38411;-76
2021/12/01 03:11:43;;;;;;;3.23;2.20;;;11.40;99.90;;;;;;5031323;28;38323;-77
2021/12/01 03:14:11;;;;;;;7.53;2.83;;;11.40;99.90;;;;;;5021592;28;38047;-78
2021/12/01 03:16:38;;;;;;;4.03;2.67;;;11.40;99.90;;;;;;5011862;28;37560;-78
2021/12/01 03:19:04;;;;;;;4.83;2.37;;;11.40;99.90;;;;;;5021680;28;39031;-78
2021/12/01 03:21:33;;;;;;;4.50;3.53;;;11.40;99.90;;;;;;5014236;28;37662;-77
2021/12/01 03:24:00;;;;;;;7.20;4.13;;;11.40;99.90;;;;;;5020092;28;38259;-78
2021/12/01 03:26:28;;;;;;;10.00;4.17;;;11.30;99.90;;;;;;5028982;28;35808;-76
2021/12/01 03:28:55;;;;;;;7.80;4.67;;;11.30;99.90;;;;;;5029867;28;38647;-77
2021/12/01 03:31:21;;;;;;;6.73;4.10;;;11.30;99.90;;;;;;5032952;28;38096;-78
2021/12/01 03:33:47;;;;;;;8.07;4.13;;;11.30;99.90;;;;;;5035804;28;37796;-76
2021/12/01 03:36:13;;;;;;;5.73;3.90;;;11.20;99.90;;;;;;5030727;28;38090;-77
2021/12/01 03:38:39;;;;;;;8.17;4.43;;;11.20;99.90;;;;;;5029557;28;39743;-77
2021/12/01 03:41:06;;;;;;;9.17;4.60;;;11.20;99.90;;;;;;5032154;28;38828;-80
2021/12/01 03:43:32;;;;;;;11.47;5.20;;;11.20;99.90;;;;;;5031322;28;36923;-77
2021/12/01 03:45:58;;;;;;;6.23;4.67;;;11.10;99.90;;;;;;5034015;28;38162;-78
2021/12/01 03:48:25;;;;;;;7.13;4.47;;;11.10;99.90;;;;;;5030259;28;38853;-78
2021/12/01 03:50:52;;;;;;;4.17;3.80;;;11.10;99.90;;;;;;5044493;28;42329;-77
2021/12/01 03:53:20;;;;;;;4.47;3.50;;;11.10;99.90;;;;;;5030770;28;39772;-78
2021/12/01 03:55:47;;;;;;;4.87;3.50;;;11.10;99.90;;;;;;5038028;28;36768;-79
2021/12/01 03:58:13;;;;;;;3.33;2.97;;;11.10;99.90;;;;;;5042026;28;38594;-78
2021/12/01 04:00:40;;;;;;;5.57;3.67;;;11.10;99.90;;;;;;5036886;28;35660;-77
2021/12/01 04:03:06;;;;;;;4.57;3.10;;;11.10;99.90;;;;;;5039713;28;39315;-78
2021/12/01 04:05:33;;;;;;;3.37;2.90;;;11.10;99.90;;;;;;5042855;28;37163;-78
2021/12/01 04:08:01;;;;;;;7.33;3.87;;;11.10;99.90;;;;;;5043455;28;39744;-77
2021/12/01 04:10:29;;;;;;;5.97;3.30;;;11.10;99.90;;;;;;5042199;28;41223;-78
2021/12/01 04:12:55;;;;;;;3.50;3.20;;;11.10;99.90;;;;;;5038977;28;38475;-78
2021/12/01 04:15:22;;;;;;;4.40;3.20;;;11.10;99.90;;;;;;5036839;28;36933;-77
2021/12/01 04:17:49;;;;;;;4.27;3.30;;;11.20;99.90;;;;;;5045156;28;39235;-78
2021/12/01 04:20:16;;;;;;;5.80;4.07;;;11.20;99.90;;;;;;5053573;28;39979;-78
2021/12/01 04:22:48;;;;;;;6.03;3.77;;;11.10;99.90;;;;;;5050666;28;39088;-77
2021/12/01 04:25:15;;;;;;;5.93;4.03;;;11.10;99.90;;;;;;5045152;28;37357;-78
2021/12/01 04:27:41;;;;;;;4.57;3.83;;;11.10;99.90;;;;;;5041602;28;37908;-77
2021/12/01 04:30:10;;;;;;;6.43;4.47;;;11.10;99.90;;;;;;5042535;28;39108;-77
2021/12/01 04:32:36;;;;;;;7.10;4.80;;;11.00;99.90;;;;;;5040643;28;38601;-77
2021/12/01 04:35:04;;;;;;;6.10;4.63;;;11.00;99.90;;;;;;5032679;28;36020;-77
2021/12/01 04:37:30;;;;;;;7.40;5.00;;;11.00;99.90;;;;;;5029702;28;47478;-78
2021/12/01 04:39:57;;;;;;;8.70;5.13;;;11.00;99.90;;;;;;5027503;28;38304;-77
2021/12/01 04:42:23;;;;;;;6.07;4.67;;;11.00;99.90;;;;;;5012301;28;38621;-76
2021/12/01 04:44:49;;;;;;;8.10;5.00;;;11.00;99.90;;;;;;5015971;28;36113;-76
2021/12/01 04:47:18;;;;;;;9.60;5.30;;;10.90;99.90;;;;;;5021343;28;38372;-76
2021/12/01 04:49:44;;;;;;;6.37;4.47;;;11.00;99.90;;;;;;5036756;28;38729;-78
2021/12/01 04:52:11;;;;;;;8.87;4.43;;;11.00;99.90;;;;;;5037031;28;39325;-78
2021/12/01 04:54:38;;;;;;;6.83;4.93;;;11.00;99.90;;;;;;5037700;28;38060;-75
2021/12/01 04:57:05;;;;;;;8.77;5.23;;;11.00;99.90;;;;;;5034444;28;40472;-77
2021/12/01 04:59:33;;;;;;;6.93;4.90;;;11.00;99.90;;;;;;5037211;28;38782;-77
2021/12/01 05:02:00;;;;;;;6.23;4.73;;;11.00;99.90;;;;;;5036374;28;38333;-79
2021/12/01 05:04:27;;;;;;;5.23;4.40;;;10.90;99.90;;;;;;5040362;28;38994;-78
2021/12/01 05:06:54;;;;;;;7.60;4.47;;;11.00;99.90;;;;;;5042728;28;38602;-77
2021/12/01 05:09:20;;;;;;;4.73;4.23;;;11.00;99.90;;;;;;5037972;28;38808;-77
2021/12/01 05:11:46;;;;;;;5.83;4.30;;;11.00;99.90;;;;;;5036768;28;38340;-78
2021/12/01 05:14:13;;;;;;;5.50;4.60;;;11.00;99.90;;;;;;5036295;28;36711;-78
2021/12/01 05:16:41;;;;;;;5.03;4.50;;;11.00;99.90;;;;;;5038041;28;39813;-77
2021/12/01 05:19:08;;;;;;;5.37;4.43;;;10.90;99.90;;;;;;5035476;28;38530;-76
2021/12/01 05:21:35;;;;;;;5.60;4.07;;;11.00;99.90;;;;;;5040385;28;38214;-77
2021/12/01 05:24:01;;;;;;;5.23;4.70;;;11.00;99.90;;;;;;5039309;28;38683;-77
2021/12/01 05:26:28;;;;;;;6.13;4.77;;;10.90;99.90;;;;;;5036582;28;39946;-78
2021/12/01 05:28:54;;;;;;;6.63;4.67;;;10.90;99.90;;;;;;5040593;28;38378;-78
2021/12/01 05:31:20;;;;;;;5.43;4.93;;;10.90;99.90;;;;;;5039211;28;38231;-76
2021/12/01 05:33:46;;;;;;;6.80;5.73;;;10.90;99.90;;;;;;5032946;28;38922;-78
2021/12/01 05:36:13;;;;;;;5.97;5.30;;;10.80;99.90;;;;;;5032600;28;39267;-78
2021/12/01 05:38:39;;;;;;;5.37;4.80;;;10.80;99.90;;;;;;5039488;28;39983;-77
2021/12/01 05:41:05;;;;;;;6.63;5.50;;;10.90;99.90;;;;;;5035065;28;39057;-78
2021/12/01 05:43:32;;;;;;;6.93;5.40;;;10.90;99.90;;;;;;5037157;28;38142;-76
2021/12/01 05:45:58;;;;;;;6.30;5.53;;;10.80;99.90;;;;;;5036175;28;39577;-78
2021/12/01 05:48:24;;;;;;;7.67;5.40;;;10.80;99.90;;;;;;5030930;28;38519;-76
2021/12/01 05:50:50;;;;;;;9.67;6.37;;;10.80;99.90;;;;;;5044605;28;40682;-75
2021/12/01 05:53:17;;;;;;;8.77;5.57;;;10.80;99.90;;;;;;5027744;28;37144;-76
2021/12/01 05:55:43;;;;;;;6.47;5.23;;;10.80;99.90;;;;;;5028401;28;39485;-77
2021/12/01 05:58:09;;;;;;;6.37;5.47;;;10.80;99.90;;;;;;5029936;28;39850;-77
2021/12/01 06:00:36;;;;;;;7.73;5.73;;;10.80;99.90;;;;;;5029505;28;40187;-77
2021/12/01 06:03:02;;;;;;;5.63;5.13;;;10.80;99.90;;;;;;5031967;28;37431;-77
2021/12/01 06:05:28;;;;;;;10.37;6.00;;;10.80;99.90;;;;;;5030074;28;40145;-79
2021/12/01 06:07:55;;;;;;;7.67;5.10;;;10.80;99.90;;;;;;5032877;28;38405;-79
2021/12/01 06:10:22;;;;;;;7.17;5.57;;;10.80;99.90;;;;;;5030989;28;38748;-76
2021/12/01 06:12:48;;;;;;;9.10;6.00;;;10.80;99.90;;;;;;5028452;28;37563;-76
2021/12/01 06:15:16;;;;;;;8.77;5.80;;;10.90;99.90;;;;;;5031282;28;39375;-76
2021/12/01 06:17:43;;;;;;;7.03;6.20;;;10.90;99.90;;;;;;5023521;28;39360;-76
2021/12/01 06:20:11;;;;;;;8.70;6.43;;;10.90;99.90;;;;;;5015951;28;36578;-78
2021/12/01 06:22:40;;;;;;;10.13;6.00;;;10.90;99.90;;;;;;5020773;28;37807;-77
2021/12/01 06:25:07;;;;;;;6.83;5.90;;;10.90;99.90;;;;;;5015697;28;40005;-77
2021/12/01 06:27:33;;;;;;;7.43;5.43;;;10.90;99.90;;;;;;5023140;28;40041;-78
2021/12/01 06:29:59;;;;;;;7.60;4.77;;;10.90;99.90;;;;;;5023475;28;39190;-79
2021/12/01 06:32:25;;;;;;;6.17;3.97;;;10.90;99.90;;;;;;5021140;28;37079;-78
2021/12/01 06:34:52;;;;;;;7.23;4.30;;;10.90;99.90;;;;;;5018488;28;40533;-79
2021/12/01 06:37:18;;;;;;;4.03;3.60;;;10.90;99.90;;;;;;5019982;28;39021;-79
2021/12/01 06:39:46;;;;;;;6.60;3.60;;;11.00;99.90;;;;;;5020009;28;38529;-78
2021/12/01 06:42:13;;;;;;;5.13;3.80;;;11.00;99.90;;;;;;5022630;28;37742;-78
2021/12/01 06:44:39;;;;;;;6.33;3.37;;;11.00;99.90;;;;;;5021309;28;39122;-78
2021/12/01 06:47:05;;;;;;;5.60;3.80;;;11.00;99.90;;;;;;5018093;28;39072;-79
2021/12/01 06:49:31;;;;;;;4.43;3.90;;;11.00;99.90;;;;;;5024050;28;38705;-79
2021/12/01 06:51:57;;;;;;;5.43;4.40;;;11.00;99.90;;;;;;5020012;28;38560;-77
2021/12/01 06:54:23;;;;;;;6.10;4.00;;;11.00;99.90;;;;;;5031628;28;40048;-79
2021/12/01 06:56:50;;;;;;;7.87;4.03;;;11.00;99.90;;;;;;5022284;28;39927;-78
2021/12/01 06:59:16;;;;;;;7.13;3.77;;;11.10;99.90;;;;;;5016550;28;38894;-79
2021/12/01 07:01:42;;;;;;;8.43;3.80;;;11.10;99.90;;;;;;5027374;28;39406;-78
2021/12/01 07:04:08;;;;;;;7.97;4.23;;;11.10;99.90;;;;;;5020994;28;38391;-78
2021/12/01 07:06:34;;;;;;;10.73;4.50;;;11.10;99.90;;;;;;5019390;28;37931;-78
2021/12/01 07:09:01;;;;;;;11.77;4.63;;;11.10;99.90;;;;;;5017056;28;39598;-78
2021/12/01 07:11:30;;;;;;;12.30;4.50;;;11.10;99.90;;;;;;5011175;28;37397;-77
2021/12/01 07:13:56;;;;;;;7.87;4.20;;;11.10;99.90;;;;;;5025752;28;40320;-79
2021/12/01 07:16:23;;;;;;;10.33;4.33;;;11.10;99.90;;;;;;5019087;28;38213;-78
2021/12/01 07:18:50;;;;;;;10.10;3.43;;;11.20;99.90;;;;;;5047037;28;38513;-79
2021/12/01 07:21:16;;;;;;;12.23;3.80;;;11.20;99.90;;;;;;5020345;28;37587;-78
2021/12/01 07:23:42;;;;;;;10.97;3.57;;;11.20;99.90;;;;;;5015767;28;38875;-78
2021/12/01 07:26:08;;;;;;;9.30;2.97;;;11.20;99.90;;;;;;5019796;28;37151;-79
2021/12/01 07:28:34;;;;;;;14.33;3.43;;;11.20;99.90;;;;;;5029443;28;38276;-78
2021/12/01 07:31:01;;;;;;;12.47;3.27;;;11.30;99.90;;;;;;5022012;28;38584;-78
2021/12/01 07:33:27;;;;;;;11.50;3.60;;;11.30;99.90;;;;;;5041899;28;48139;-78
2021/12/01 07:35:53;;;;;;;13.63;3.93;;;11.30;99.90;;;;;;5025577;28;39601;-79
2021/12/01 07:38:20;;;;;;;12.73;3.77;;;11.30;99.90;;;;;;5026406;28;39643;-79
2021/12/01 07:40:46;;;;;;;10.43;3.60;;;11.30;99.90;;;;;;5023235;28;38132;-79
2021/12/01 07:43:12;;;;;;;10.43;3.07;;;11.40;99.90;;;;;;5020743;28;39116;-79
2021/12/01 07:45:43;;;;;;;13.03;4.13;;;11.40;99.90;;;;;;5018728;28;38360;-78
2021/12/01 07:48:10;;;;;;;14.10;3.30;;;11.40;99.90;;;;;;5011960;28;39055;-79
2021/12/01 07:50:36;;;;;;;17.13;3.97;;;11.40;99.90;;;;;;5009945;28;36872;-78
2021/12/01 07:53:02;;;;;;;15.60;3.33;;;11.40;99.90;;;;;;5043280;28;38571;-79
2021/12/01 07:55:28;;;;;;;17.37;4.17;;;11.30;99.90;;;;;;5022641;28;38517;-78
2021/12/01 07:57:55;;;;;;;12.73;2.83;;;11.30;99.90;;;;;;5009713;28;38201;-79
2021/12/01 08:00:22;;;;;;;16.20;3.00;;;11.20;99.90;;;;;;5023304;28;37519;-78
2021/12/01 08:02:48;;;;;;;10.73;2.40;;;11.10;99.90;;;;;;5013179;28;39669;-78
2021/12/01 08:05:14;;;;;;;17.50;3.00;;;11.00;99.90;;;;;;5032156;28;39733;-78
2021/12/01 08:07:40;;;;;;;17.47;3.50;;;11.00;99.90;;;;;;5011384;28;37981;-78
2021/12/01 08:10:08;;;;;;;16.07;3.17;;;10.90;99.90;;;;;;5013308;28;37640;-77
2021/12/01 08:12:34;;;;;;;17.73;2.80;;;10.90;99.90;;;;;;5035281;28;39768;-78
2021/12/01 08:15:05;;;;;;;10.77;2.07;;;10.90;99.90;;;;;;5035550;28;39568;-78
2021/12/01 08:17:32;;;;;;;17.37;2.70;;;11.10;99.90;;;;;;5033195;28;47922;-77
2021/12/01 08:19:58;;;;;;;20.77;3.43;;;11.00;99.90;;;;;;5041095;28;36689;-76
2021/12/01 08:22:28;;;;;;;11.13;1.80;;;10.90;99.90;;;;;;5020005;28;39000;-76
2021/12/01 08:24:57;;;;;;;15.10;2.50;;;10.80;99.90;;;;;;5015090;28;38547;-76
2021/12/01 08:27:24;;;;;;;15.57;2.30;;;10.70;99.90;;;;;;5023955;28;37340;-77
2021/12/01 08:29:50;;;;;;;11.67;1.93;;;10.60;99.90;;;;;;5017067;28;38411;-76
2021/12/01 08:32:16;;;;;;;19.07;2.37;;;10.60;99.90;;;;;;5024820;28;38536;-77
2021/12/01 08:34:47;;;;;;;18.63;2.70;;;10.50;99.90;;;;;;5026296;28;38337;-76
2021/12/01 08:37:15;;;;;;;21.07;2.80;;;10.60;99.90;;;;;;5029178;28;38535;-75
2021/12/01 08:39:42;;;;;;;10.23;1.50;;;10.60;99.90;;;;;;5023016;28;37532;-75
2021/12/01 08:42:10;;;;;;;11.90;1.93;;;10.70;99.90;;;;;;5018419;28;40048;-76
2021/12/01 08:44:36;;;;;;;9.70;2.10;;;10.80;99.90;;;;;;5020822;28;39219;-78
2021/12/01 08:47:02;;;;;;;9.73;1.93;;;10.80;99.90;;;;;;5009523;28;38255;-77
2021/12/01 08:49:29;;;;;;;11.80;1.27;;;10.80;99.90;;;;;;5034148;28;36357;-76
2021/12/01 08:51:55;;;;;;;10.17;1.60;;;10.70;99.90;;;;;;5017580;28;38651;-76
2021/12/01 08:54:21;;;;;;;13.43;1.57;;;10.70;99.90;;;;;;5017107;28;38956;-76
2021/12/01 08:56:47;;;;;;;9.43;1.87;;;10.60;99.90;;;;;;5017754;28;37161;-77
2021/12/01 08:59:13;;;;;;;15.37;1.70;;;10.60;99.90;;;;;;5026061;28;36128;-77
2021/12/01 09:01:40;;;;;;;8.43;1.43;;;10.60;99.90;;;;;;5046124;28;37842;-76
2021/12/01 09:04:07;;;;;;;10.53;1.20;;;10.80;99.90;;;;;;5015569;28;20117;-76
2021/12/01 09:06:33;;;;;;;10.37;1.30;;;10.80;99.90;;;;;;5013185;28;38211;-76
2021/12/01 09:08:59;;;;;;;9.47;1.40;;;10.80;99.90;;;;;;5008904;28;37053;-76
2021/12/01 09:11:25;;;;;;;17.77;2.73;;;10.80;99.90;;;;;;5022778;28;38118;-76
2021/12/01 09:13:51;;;;;;;8.07;1.57;;;10.90;99.90;;;;;;5017900;28;38471;-77
2021/12/01 09:16:19;;;;;;;11.33;1.57;;;10.80;99.90;;;;;;5045107;28;37791;-74
2021/12/01 09:18:45;;;;;;;10.80;1.20;;;10.70;99.90;;;;;;5025396;28;40054;-78
2021/12/01 09:21:12;;;;;;;11.60;2.40;;;10.50;99.90;;;;;;5027788;28;38590;-77
2021/12/01 09:23:39;;;;;;;7.03;1.27;;;10.50;99.90;;;;;;5024160;28;38698;-76
2021/12/01 09:26:05;;;;;;;8.83;1.30;;;10.50;99.90;;;;;;5022744;28;39874;-78
2021/12/01 09:28:31;;;;;;;9.07;1.33;;;10.50;99.90;;;;;;5033264;28;39220;-77
2021/12/01 09:30:58;;;;;;;8.13;0.90;;;10.50;99.90;;;;;;5031617;28;38456;-77
2021/12/01 09:33:27;;;;;;;13.97;2.93;;;10.50;99.90;;;;;;5013156;28;38609;-76
2021/12/01 09:35:53;;;;;;;9.87;1.60;;;10.40;99.90;;;;;;5031797;28;38052;-77
2021/12/01 09:38:20;;;;;;;9.40;1.30;;;10.30;99.90;;;;;;5027888;28;37339;-77
2021/12/01 09:40:51;;;;;;;11.03;1.50;;;10.30;99.90;;;;;;5032585;28;40264;-77
2021/12/01 09:43:19;;;;;;;8.53;0.97;;;10.30;99.90;;;;;;5012366;28;38749;-77
2021/12/01 09:45:46;;;;;;;7.47;1.20;;;10.30;99.90;;;;;;5020977;28;37060;-76
2021/12/01 09:48:12;;;;;;;6.83;1.20;;;10.30;99.90;;;;;;5019246;28;37084;-77
2021/12/01 09:50:39;;;;;;;11.73;1.10;;;10.40;99.90;;;;;;5011292;28;39774;-76
2021/12/01 09:53:06;;;;;;;19.23;2.07;;;10.40;99.90;;;;;;5018034;28;38059;-78
2021/12/01 09:55:33;;;;;;;11.07;1.60;;;10.50;99.90;;;;;;5019886;28;37648;-77
2021/12/01 09:58:04;;;;;;;7.77;1.40;;;10.50;99.90;;;;;;5010530;28;37190;-78
2021/12/01 10:00:32;;;;;;;10.10;1.60;;;10.30;99.90;;;;;;5037902;28;48272;-78
2021/12/01 10:02:59;;;;;;;12.93;1.53;;;10.30;99.90;;;;;;5006113;28;38624;-76
2021/12/01 10:05:51;;;;;;;11.33;2.40;;;10.20;99.90;;;;;;5023360;28;39168;-76
2021/12/01 10:08:30;;;;;;;14.87;1.97;;;10.20;99.90;;;;;;5026979;28;37031;-76
2021/12/01 10:10:57;;;;;;;13.40;2.03;;;10.20;99.90;;;;;;5041397;28;40919;-75
2021/12/01 10:13:29;;;;;;;8.43;1.67;;;10.20;99.90;;;;;;5034439;28;38042;-76
2021/12/01 10:15:58;;;;;;;10.13;1.33;;;10.10;99.90;;;;;;5022257;28;36956;-77
2021/12/01 10:18:25;;;;;;;10.83;2.47;;;10.10;99.90;;;;;;5025238;28;36938;-77
2021/12/01 10:21:40;;;;;;;10.50;1.67;;;10.10;99.90;;;;;;5025896;28;39616;-76
2021/12/01 10:24:20;;;;;;;8.07;1.20;;;10.20;99.90;;;;;;4961471;28;48438;-75
2021/12/01 10:26:56;;;;;;;13.00;1.63;;;10.30;99.90;;;;;;5018200;28;39182;-75
2021/12/01 10:29:29;;;;;;;13.07;1.80;;;10.40;99.90;;;;;;5040772;28;37501;-79
2021/12/01 10:32:00;;;;;;;10.33;2.60;;;10.50;99.90;;;;;;5019758;28;38980;-76
2021/12/01 10:34:43;;;;;;;8.40;1.50;;;10.60;99.90;;;;;;5020000;28;39138;-76
2021/12/01 10:37:12;;;;;;;12.33;1.53;;;10.70;99.90;;;;;;5016057;28;38172;-79
2021/12/01 10:39:43;;;;;;;8.53;1.50;;;10.70;99.90;;;;;;5027541;28;39217;-78
2021/12/01 10:42:14;;;;;;;10.23;1.80;;;10.80;99.90;;;;;;5015553;28;40187;-77
2021/12/01 10:44:58;;;;;;;13.00;1.60;;;10.80;99.90;;;;;;5019799;28;39537;-80
2021/12/01 10:47:25;;;;;;;13.77;1.50;;;10.80;99.90;;;;;;5014304;28;39019;-79
2021/12/01 10:49:51;;;;;;;18.53;2.40;;;10.70;99.90;;;;;;5026119;28;38123;-78
2021/12/01 10:52:35;;;;;;;11.33;1.40;;;10.80;99.90;;;;;;5025890;28;40370;-78
2021/12/01 10:55:10;;;;;;;14.53;2.90;;;10.80;99.90;;;;;;5020981;28;38729;-78
2021/12/01 10:57:40;;;;;;;8.33;1.13;;;10.90;99.90;;;;;;5024580;28;47955;-78
2021/12/01 11:00:24;;;;;;;15.47;1.90;;;11.00;99.90;;;;;;5028179;28;38363;-77
2021/12/01 11:02:51;;;;;;;7.90;1.47;;;11.00;99.90;;;;;;5033202;28;47043;-79
2021/12/01 11:05:32;;;;;;;6.57;1.27;;;11.10;99.90;;;;;;5023965;28;40074;-78
2021/12/01 11:08:09;;;;;;;11.07;1.80;;;11.10;99.90;;;;;;5025939;28;37211;-77
2021/12/01 11:10:35;;;;;;;9.70;1.40;;;11.10;99.90;;;;;;5019485;28;48836;-78
2021/12/01 11:13:04;;;;;;;6.67;1.50;;;11.20;99.90;;;;;;5010580;28;38516;-77
2021/12/01 11:15:36;;;;;;;8.77;1.50;;;11.30;99.90;;;;;;5031368;28;38809;-78
2021/12/01 11:18:04;;;;;;;5.90;1.17;;;11.30;99.90;;;;;;5028752;28;38973;-78
2021/12/01 11:20:54;;;;;;;12.93;1.87;;;11.30;99.90;;;;;;5026894;28;38549;-78
2021/12/01 11:23:23;;;;;;;8.37;1.50;;;11.30;99.90;;;;;;5029581;28;37569;-77
2021/12/01 11:25:51;;;;;;;11.33;2.13;;;11.30;99.90;;;;;;5018582;28;38067;-77
2021/12/01 11:28:19;;;;;;;13.23;1.50;;;11.20;99.90;;;;;;5030102;28;38139;-76
2021/12/01 11:30:49;;;;;;;11.83;1.10;;;11.10;99.90;;;;;;5033050;28;38040;-77
2021/12/01 11:33:18;;;;;;;14.03;1.77;;;11.10;99.90;;;;;;5024641;28;39683;-77
2021/12/01 11:35:48;;;;;;;7.73;1.40;;;11.00;99.90;;;;;;5030921;28;37175;-77
2021/12/01 11:38:15;;;;;;;8.33;1.80;;;11.00;99.90;;;;;;5019598;28;39729;-77
2021/12/01 11:40:42;;;;;;;9.53;1.60;;;11.00;99.90;;;;;;5031027;28;36608;-78
2021/12/01 11:43:10;;;;;;;8.87;1.63;;;11.00;99.90;;;;;;5020475;28;39343;-77
2021/12/01 11:45:39;;;;;;;13.27;1.63;;;11.10;99.90;;;;;;5024778;28;39405;-79
2021/12/01 11:48:12;;;;;;;13.07;2.00;;;11.00;99.90;;;;;;5032245;28;38906;-78
2021/12/01 11:50:53;;;;;;;9.07;1.70;;;11.10;99.90;;;;;;5024180;28;37035;-77
2021/12/01 11:53:33;;;;;;;11.87;1.67;;;11.10;99.90;;;;;;5035077;28;39585;-77
2021/12/01 11:56:26;;;;;;;10.00;1.40;;;11.10;99.90;;;;;;5025427;28;38348;-78
2021/12/01 11:59:18;;;;;;;12.02;2.95;;;11.00;99.90;;;;;;5034302;28;49136;-78
2021/12/01 12:01:49;;;;;;;9.13;2.13;;;11.00;99.90;;;;;;5023815;28;48630;-79
2021/12/01 12:04:21;;;;;;;16.83;1.90;;;10.90;99.90;;;;;;5023915;28;41057;-77
2021/12/01 12:07:06;;;;;;;12.98;2.05;;;10.70;99.90;;;;;;5017041;28;38906;-77
2021/12/01 12:09:32;;;;;;;12.13;1.77;;;10.60;99.90;;;;;;5029169;28;47306;-77
2021/12/01 12:11:58;;;;;;;10.20;1.70;;;10.50;99.90;;;;;;5019789;28;37608;-78
2021/12/01 12:14:36;;;;;;;15.10;2.30;;;10.50;99.90;;;;;;5026072;28;39855;-77
2021/12/01 12:17:32;;;;;;;13.43;2.07;;;10.50;99.90;;;;;;5012567;28;37324;-77
2021/12/01 12:20:02;;;;;;;12.37;2.03;;;10.50;99.90;;;;;;5031762;28;38058;-75
2021/12/01 12:22:36;;;;;;;10.87;1.77;;;10.40;99.90;;;;;;5053449;28;47261;-77
2021/12/01 12:25:06;;;;;;;13.53;2.47;;;10.30;99.90;;;;;;5049541;28;39868;-78
2021/12/01 12:27:41;;;;;;;13.13;2.40;;;10.40;99.90;;;;;;5037903;28;48744;-76
2021/12/01 12:30:14;;;;;;;14.73;2.13;;;10.40;99.90;;;;;;5022091;28;38845;-77
2021/12/01 12:32:44;;;;;;;12.10;2.27;;;10.50;99.90;;;;;;5025931;28;37720;-77
2021/12/01 12:35:16;;;;;;;18.57;2.40;;;10.60;99.90;;;;;;5026861;28;38633;-77
2021/12/01 12:37:43;;;;;;;14.82;1.90;;;10.60;99.90;;;;;;5024417;28;39413;-78
2021/12/01 12:40:21;;;;;;;11.20;2.53;;;10.60;99.90;;;;;;5019186;28;38453;-78
2021/12/01 12:43:23;;;;;;;16.87;2.70;;;10.70;99.90;;;;;;5016497;28;37091;-78
2021/12/01 12:46:18;;;;;;;21.17;2.77;;;10.80;99.90;;;;;;4998288;28;47175;-77
2021/12/01 12:48:48;;;;;;;15.57;2.17;;;10.80;99.90;;;;;;5016454;28;47359;-78
2021/12/01 12:51:16;;;;;;;14.30;1.93;;;10.70;99.90;;;;;;5019800;28;38385;-79
2021/12/01 12:54:04;;;;;;;14.07;2.23;;;10.70;99.90;;;;;;5020191;28;37915;-78
2021/12/01 12:56:36;;;;;;;12.67;2.70;;;10.80;99.90;;;;;;5020078;28;49198;-77